Time;durP1;ratioP1;P1;durP2;ratioP2;P2;SDS_P1;SDS_P2;PMS_P1;PMS_P2;Temp;Humidity;BMP_temperature;BMP_pressure;BME280_temperature;BME280_humidity;BME280_pressure;Samples;Min_cycle;Max_cycle;Signal;HPM_P1;HPM_P2
2021/10/27 00:00:54;;;;;;;4.47;3.10;;;12.00;99.90;;;;;;4903399;29;20877;-83
2021/10/27 00:03:24;;;;;;;4.10;2.63;;;12.10;99.90;;;;;;4910807;29;20552;-83
2021/10/27 00:05:52;;;;;;;3.80;2.53;;;12.10;99.90;;;;;;4909703;29;20956;-82
2021/10/27 00:08:20;;;;;;;4.60;2.73;;;12.10;99.90;;;;;;4915410;29;20481;-83
2021/10/27 00:10:49;;;;;;;4.40;2.57;;;12.10;99.90;;;;;;4914019;29;20969;-82
2021/10/27 00:13:17;;;;;;;4.77;2.60;;;12.00;99.90;;;;;;4908570;29;20469;-82
2021/10/27 00:15:46;;;;;;;6.00;3.13;;;12.00;99.90;;;;;;4911249;29;20466;-83
2021/10/27 00:18:14;;;;;;;3.60;2.67;;;12.00;99.90;;;;;;4910462;29;20496;-83
2021/10/27 00:20:44;;;;;;;4.40;2.90;;;12.00;99.90;;;;;;4913533;29;20895;-82
2021/10/27 00:23:12;;;;;;;2.53;2.33;;;11.90;99.90;;;;;;4912483;29;20596;-83
2021/10/27 00:25:40;;;;;;;5.73;4.00;;;11.80;99.90;;;;;;4911747;29;20485;-83
2021/10/27 00:28:08;;;;;;;20.47;4.60;;;11.80;99.90;;;;;;4914898;29;20492;-83
2021/10/27 00:30:37;;;;;;;6.70;3.70;;;11.80;99.90;;;;;;4911653;29;20480;-82
2021/10/27 00:33:05;;;;;;;7.13;4.30;;;11.80;99.90;;;;;;4913748;29;20457;-82
2021/10/27 00:35:34;;;;;;;9.40;3.73;;;11.80;99.90;;;;;;4912769;29;20477;-82
2021/10/27 00:38:03;;;;;;;5.90;3.23;;;11.80;99.90;;;;;;4911914;29;20510;-81
2021/10/27 00:40:32;;;;;;;8.97;4.00;;;11.80;99.90;;;;;;4906863;29;20883;-82
2021/10/27 00:43:00;;;;;;;4.47;2.77;;;11.70;99.90;;;;;;4910068;29;20465;-81
2021/10/27 00:45:28;;;;;;;3.83;3.03;;;11.60;99.90;;;;;;4910700;29;20461;-82
2021/10/27 00:47:56;;;;;;;6.20;4.00;;;11.70;99.90;;;;;;4916081;29;20564;-82
2021/10/27 00:50:25;;;;;;;5.40;2.90;;;11.70;99.90;;;;;;4919118;29;20488;-82
2021/10/27 00:52:53;;;;;;;2.70;2.50;;;11.60;99.90;;;;;;4910833;29;21069;-81
2021/10/27 00:55:23;;;;;;;5.43;3.27;;;11.70;99.90;;;;;;4914853;29;20960;-82
2021/10/27 00:57:52;;;;;;;3.17;2.90;;;11.60;99.90;;;;;;4914300;29;20520;-82
2021/10/27 01:00:20;;;;;;;3.07;2.77;;;11.50;99.90;;;;;;4912757;29;20465;-83
2021/10/27 01:02:48;;;;;;;2.57;2.37;;;11.50;99.90;;;;;;4916259;29;20462;-83
2021/10/27 01:05:17;;;;;;;3.07;2.77;;;11.60;99.90;;;;;;4917377;29;20456;-83
2021/10/27 01:07:46;;;;;;;5.33;2.30;;;11.60;99.90;;;;;;4916887;29;20481;-83
2021/10/27 01:10:14;;;;;;;4.03;3.27;;;11.60;99.90;;;;;;4921842;29;20512;-83
2021/10/27 01:12:46;;;;;;;2.63;2.43;;;11.60;99.90;;;;;;4912099;29;20461;-84
2021/10/27 01:15:14;;;;;;;4.07;2.57;;;11.60;99.90;;;;;;4917340;29;20461;-84
2021/10/27 01:17:42;;;;;;;5.37;2.90;;;11.70;99.90;;;;;;4915301;29;21072;-83
2021/10/27 01:20:13;;;;;;;2.73;2.20;;;11.50;99.90;;;;;;4912790;29;20500;-83
2021/10/27 01:22:41;;;;;;;3.20;2.50;;;11.50;99.90;;;;;;4915671;29;20465;-83
2021/10/27 01:25:12;;;;;;;2.50;2.20;;;11.50;99.90;;;;;;4917255;29;20458;-83
2021/10/27 01:27:42;;;;;;;4.43;2.30;;;11.50;99.90;;;;;;4913869;29;20481;-83
2021/10/27 01:30:16;;;;;;;2.30;1.90;;;11.50;99.90;;;;;;4913261;29;20496;-83
2021/10/27 01:32:46;;;;;;;2.20;2.10;;;11.50;99.90;;;;;;4914002;29;20989;-83
2021/10/27 01:35:17;;;;;;;4.37;2.17;;;11.40;99.90;;;;;;4914506;29;20505;-84
2021/10/27 01:37:46;;;;;;;3.23;2.30;;;11.40;99.90;;;;;;4922256;29;20478;-82
2021/10/27 01:40:16;;;;;;;2.80;2.07;;;11.30;99.90;;;;;;4920366;29;20484;-83
2021/10/27 01:42:47;;;;;;;3.93;2.33;;;11.40;99.90;;;;;;4914028;29;20888;-83
2021/10/27 01:45:16;;;;;;;2.57;2.33;;;11.30;99.90;;;;;;4916046;29;20552;-83
2021/10/27 01:47:45;;;;;;;2.63;1.93;;;11.20;99.90;;;;;;4915430;29;20462;-83
2021/10/27 01:50:16;;;;;;;2.43;2.23;;;11.20;99.90;;;;;;4917810;29;20480;-83
2021/10/27 01:52:44;;;;;;;2.40;2.20;;;11.30;99.90;;;;;;4915121;29;20458;-83
2021/10/27 01:55:13;;;;;;;1.80;1.70;;;11.20;99.90;;;;;;4911651;29;20454;-83
2021/10/27 01:57:41;;;;;;;3.70;2.73;;;11.20;99.90;;;;;;4907920;29;20483;-84
2021/10/27 02:00:10;;;;;;;2.80;2.37;;;11.30;99.90;;;;;;4911038;29;20939;-84
2021/10/27 02:02:38;;;;;;;2.80;2.40;;;11.20;99.90;;;;;;4912645;29;20463;-83
2021/10/27 02:05:08;;;;;;;3.27;2.13;;;11.30;99.90;;;;;;4914152;29;20456;-84
2021/10/27 02:07:37;;;;;;;2.53;2.30;;;11.30;99.90;;;;;;4914027;29;20492;-83
2021/10/27 02:10:08;;;;;;;4.23;2.53;;;11.30;99.90;;;;;;4914087;29;20515;-82
2021/10/27 02:12:36;;;;;;;3.47;2.50;;;11.30;99.90;;;;;;4917419;29;20480;-82
2021/10/27 02:15:06;;;;;;;4.53;3.20;;;11.30;99.90;;;;;;4920223;29;20468;-82
2021/10/27 02:17:34;;;;;;;4.30;2.70;;;11.30;99.90;;;;;;4910980;29;20473;-82
2021/10/27 02:20:03;;;;;;;4.90;2.30;;;11.30;99.90;;;;;;4916105;29;20488;-82
2021/10/27 02:22:32;;;;;;;5.17;2.90;;;11.30;99.90;;;;;;4918422;29;20464;-82
2021/10/27 02:25:02;;;;;;;10.20;2.87;;;11.20;99.90;;;;;;4918091;29;20465;-82
2021/10/27 02:27:30;;;;;;;3.53;3.27;;;11.20;99.90;;;;;;4917023;29;20474;-81
2021/10/27 02:29:58;;;;;;;3.13;2.87;;;11.20;99.90;;;;;;4918664;29;20929;-81
2021/10/27 02:32:26;;;;;;;2.97;2.20;;;11.30;99.90;;;;;;4914588;29;20473;-82
2021/10/27 02:34:55;;;;;;;6.67;2.60;;;11.30;99.90;;;;;;4915234;29;20960;-82
2021/10/27 02:37:23;;;;;;;4.60;3.00;;;11.20;99.90;;;;;;4910101;29;20577;-82
2021/10/27 02:39:51;;;;;;;5.90;2.53;;;11.20;99.90;;;;;;4911113;29;20466;-82
2021/10/27 02:42:20;;;;;;;2.60;2.40;;;11.10;99.90;;;;;;4919688;29;20532;-82
2021/10/27 02:44:49;;;;;;;3.20;2.90;;;11.10;99.90;;;;;;4917586;29;20458;-82
2021/10/27 02:47:17;;;;;;;2.57;2.37;;;11.10;99.90;;;;;;4913020;29;21004;-82
2021/10/27 02:49:45;;;;;;;3.83;3.17;;;11.10;99.90;;;;;;4915297;29;20846;-82
2021/10/27 02:52:13;;;;;;;3.40;2.67;;;11.00;99.90;;;;;;4915052;29;21316;-82
2021/10/27 02:54:41;;;;;;;4.47;2.10;;;11.00;99.90;;;;;;4915180;29;20473;-82
2021/10/27 02:57:09;;;;;;;3.93;3.07;;;11.00;99.90;;;;;;4914846;29;20579;-82
2021/10/27 02:59:39;;;;;;;4.40;3.10;;;11.00;99.90;;;;;;4925695;29;20472;-82
2021/10/27 03:02:07;;;;;;;3.67;2.30;;;11.00;99.90;;;;;;4912505;29;20505;-81
2021/10/27 03:04:35;;;;;;;2.63;2.43;;;11.00;99.90;;;;;;4914849;29;21064;-82
2021/10/27 03:07:04;;;;;;;2.53;2.13;;;11.00;99.90;;;;;;4915721;29;20482;-82
2021/10/27 03:09:32;;;;;;;4.37;3.20;;;11.00;99.90;;;;;;4917925;29;20998;-85
2021/10/27 03:12:00;;;;;;;5.23;2.60;;;11.00;99.90;;;;;;4916011;29;20453;-83
2021/10/27 03:14:28;;;;;;;2.90;2.60;;;10.90;99.90;;;;;;4917366;29;20460;-84
2021/10/27 03:16:58;;;;;;;3.07;2.87;;;11.00;99.90;;;;;;4910238;29;20492;-83
2021/10/27 03:19:26;;;;;;;5.20;2.87;;;11.00;99.90;;;;;;4911511;29;20462;-83
2021/10/27 03:21:55;;;;;;;3.20;2.70;;;10.90;99.90;;;;;;4915989;29;20535;-82
2021/10/27 03:24:23;;;;;;;2.70;2.50;;;10.90;99.90;;;;;;4916286;29;20813;-83
2021/10/27 03:26:51;;;;;;;3.00;2.60;;;10.90;99.90;;;;;;4920829;29;20561;-84
2021/10/27 03:29:19;;;;;;;2.80;2.23;;;10.90;99.90;;;;;;4918515;29;20443;-82
2021/10/27 03:31:48;;;;;;;4.20;3.30;;;10.80;99.90;;;;;;4911946;29;20477;-82
2021/10/27 03:34:17;;;;;;;2.73;2.53;;;10.90;99.90;;;;;;4908639;29;20464;-81
2021/10/27 03:36:46;;;;;;;6.37;2.60;;;10.80;99.90;;;;;;4914671;29;20469;-83
2021/10/27 03:39:14;;;;;;;3.00;2.70;;;10.80;99.90;;;;;;4913551;29;20530;-83
2021/10/27 03:41:43;;;;;;;2.87;2.67;;;10.80;99.90;;;;;;4914198;29;20454;-83
2021/10/27 03:44:11;;;;;;;3.40;2.80;;;10.80;99.90;;;;;;4912613;29;20455;-83
2021/10/27 03:46:40;;;;;;;3.97;2.37;;;10.80;99.90;;;;;;4912801;29;20455;-83
2021/10/27 03:49:08;;;;;;;3.93;2.93;;;10.80;99.90;;;;;;4919890;29;20460;-84
2021/10/27 03:51:38;;;;;;;4.07;3.33;;;10.70;99.90;;;;;;4912841;29;20849;-83
2021/10/27 03:54:06;;;;;;;3.87;2.83;;;10.70;99.90;;;;;;4906614;29;20483;-84
2021/10/27 03:56:34;;;;;;;3.00;2.70;;;10.70;99.90;;;;;;4922674;29;20469;-83
2021/10/27 03:59:03;;;;;;;2.70;2.50;;;10.70;99.90;;;;;;4911744;29;20470;-83
2021/10/27 04:01:31;;;;;;;2.30;2.10;;;10.70;99.90;;;;;;4903556;29;20551;-83
2021/10/27 04:04:00;;;;;;;2.93;2.73;;;10.70;99.90;;;;;;4912603;29;20498;-83
2021/10/27 04:06:28;;;;;;;5.50;3.10;;;10.60;99.90;;;;;;4912904;29;20497;-82
2021/10/27 04:08:58;;;;;;;3.07;2.73;;;10.60;99.90;;;;;;4915181;29;20452;-82
2021/10/27 04:11:26;;;;;;;3.53;3.10;;;10.70;99.90;;;;;;4913110;29;20526;-82
2021/10/27 04:13:54;;;;;;;4.97;3.27;;;10.70;99.90;;;;;;4915250;29;20462;-81
2021/10/27 04:16:22;;;;;;;3.40;3.10;;;10.70;99.90;;;;;;4920230;29;20460;-81
2021/10/27 04:18:50;;;;;;;5.57;3.97;;;10.70;99.90;;;;;;4917674;29;20883;-82
2021/10/27 04:21:19;;;;;;;4.30;3.47;;;10.60;99.90;;;;;;4912582;29;20553;-83
2021/10/27 04:23:47;;;;;;;6.27;3.70;;;10.60;99.90;;;;;;4913416;29;20992;-83
2021/10/27 04:26:17;;;;;;;7.27;3.63;;;10.60;99.90;;;;;;4916596;29;20460;-83
2021/10/27 04:28:45;;;;;;;9.50;5.17;;;10.60;99.90;;;;;;4915951;29;20554;-80
2021/10/27 04:31:13;;;;;;;3.93;3.63;;;10.60;99.90;;;;;;4921403;29;20580;-80
2021/10/27 04:33:41;;;;;;;5.30;3.23;;;10.50;99.90;;;;;;4918453;29;20461;-80
2021/10/27 04:36:09;;;;;;;9.43;4.70;;;10.50;99.90;;;;;;4914832;29;20484;-75
2021/10/27 04:38:38;;;;;;;7.43;4.90;;;10.30;99.90;;;;;;4911987;29;20480;-75
2021/10/27 04:41:07;;;;;;;5.10;4.10;;;10.00;99.90;;;;;;4909673;29;21404;-78
2021/10/27 04:43:36;;;;;;;6.73;3.37;;;9.90;99.90;;;;;;4926930;29;20473;-77
2021/10/27 04:46:05;;;;;;;6.97;4.10;;;10.00;99.90;;;;;;4915158;29;20527;-77
2021/10/27 04:48:33;;;;;;;4.60;3.50;;;10.00;99.90;;;;;;4914123;29;20476;-78
2021/10/27 04:51:01;;;;;;;5.07;3.40;;;10.20;99.90;;;;;;4908161;29;21073;-77
2021/10/27 04:53:29;;;;;;;6.03;4.20;;;10.20;99.90;;;;;;4911112;29;20459;-77
2021/10/27 04:56:00;;;;;;;4.07;3.33;;;10.30;99.90;;;;;;4909416;29;20456;-77
2021/10/27 04:58:30;;;;;;;7.13;3.40;;;10.40;99.90;;;;;;4913171;29;21005;-79
2021/10/27 05:00:59;;;;;;;5.07;2.97;;;10.40;99.90;;;;;;4911383;29;20996;-77
2021/10/27 05:03:28;;;;;;;7.50;3.53;;;10.30;99.90;;;;;;4911604;29;20475;-77
2021/10/27 05:05:56;;;;;;;4.03;2.93;;;10.30;99.90;;;;;;4911061;29;20461;-78
2021/10/27 05:08:24;;;;;;;3.60;3.13;;;10.30;99.90;;;;;;4914634;29;20492;-77
2021/10/27 05:10:53;;;;;;;5.10;3.90;;;10.30;99.90;;;;;;4922744;29;20457;-77
2021/10/27 05:13:21;;;;;;;4.00;2.87;;;10.30;99.90;;;;;;4914790;29;20969;-78
2021/10/27 05:15:50;;;;;;;5.60;2.77;;;10.30;99.90;;;;;;4913947;29;20452;-79
2021/10/27 05:18:20;;;;;;;4.80;3.67;;;10.40;99.90;;;;;;4907904;29;20485;-78
2021/10/27 05:20:48;;;;;;;3.37;3.03;;;10.40;99.90;;;;;;4912802;29;20461;-78
2021/10/27 05:23:18;;;;;;;4.77;3.50;;;10.40;99.90;;;;;;4899563;29;20470;-79
2021/10/27 05:25:46;;;;;;;3.27;2.87;;;10.40;99.90;;;;;;4905361;29;20468;-78
2021/10/27 05:28:15;;;;;;;4.40;3.77;;;10.40;99.90;;;;;;4908076;29;20628;-76
2021/10/27 05:30:43;;;;;;;6.30;4.23;;;10.30;99.90;;;;;;4905790;29;20472;-78
2021/10/27 05:33:11;;;;;;;5.73;4.10;;;10.40;99.90;;;;;;4925270;29;20500;-78
2021/10/27 05:35:41;;;;;;;4.57;3.37;;;10.40;99.90;;;;;;4913444;29;20470;-78
2021/10/27 05:38:09;;;;;;;6.37;4.47;;;10.40;99.90;;;;;;4913103;29;20528;-78
2021/10/27 05:40:37;;;;;;;4.80;4.20;;;10.30;99.90;;;;;;4908834;29;20553;-78
2021/10/27 05:43:11;;;;;;;7.13;4.17;;;10.40;99.90;;;;;;4913577;29;20473;-77
2021/10/27 05:45:40;;;;;;;6.10;4.27;;;10.40;99.90;;;;;;4912547;29;20464;-77
2021/10/27 05:48:10;;;;;;;8.20;5.37;;;10.30;99.90;;;;;;4913586;29;20484;-77
2021/10/27 05:50:39;;;;;;;3.53;3.00;;;10.30;99.90;;;;;;4908324;29;20456;-77
2021/10/27 05:55:54;;;;;;;5.40;3.80;;;10.20;99.90;;;;;;4901145;29;20522;-78
2021/10/27 05:58:22;;;;;;;3.60;3.30;;;10.20;99.90;;;;;;4914135;29;20482;-78
2021/10/27 06:00:51;;;;;;;3.67;3.37;;;10.20;99.90;;;;;;4913688;29;20471;-78
2021/10/27 06:03:19;;;;;;;6.90;3.87;;;10.20;99.90;;;;;;4925376;29;20473;-78
2021/10/27 06:05:47;;;;;;;4.53;4.13;;;10.30;99.90;;;;;;4912447;29;20533;-79
2021/10/27 06:08:17;;;;;;;4.60;3.40;;;10.20;99.90;;;;;;4908236;29;20501;-77
2021/10/27 06:10:46;;;;;;;3.33;2.93;;;10.20;99.90;;;;;;4911195;29;20546;-78
2021/10/27 06:13:16;;;;;;;3.17;2.90;;;10.20;99.90;;;;;;4905468;29;21244;-78
2021/10/27 06:15:44;;;;;;;5.20;3.30;;;10.20;99.90;;;;;;4902225;29;20462;-78
2021/10/27 06:18:12;;;;;;;4.03;3.13;;;10.20;99.90;;;;;;4905737;29;20519;-78
2021/10/27 06:20:41;;;;;;;5.37;3.47;;;10.10;99.90;;;;;;4913030;29;20565;-78
2021/10/27 06:23:09;;;;;;;4.80;3.60;;;10.20;99.90;;;;;;4913617;29;20456;-77
2021/10/27 06:25:39;;;;;;;7.23;3.37;;;10.20;99.90;;;;;;4909651;29;21010;-78
2021/10/27 06:28:10;;;;;;;6.70;3.70;;;10.10;99.90;;;;;;4903291;29;20520;-78
2021/10/27 06:30:46;;;;;;;4.10;2.87;;;10.10;99.90;;;;;;4910260;29;20512;-77
2021/10/27 06:33:32;;;;;;;3.50;3.20;;;10.20;99.90;;;;;;4910777;29;20494;-78
2021/10/27 06:36:04;;;;;;;3.80;3.50;;;10.20;99.90;;;;;;4913226;29;20465;-77
2021/10/27 06:38:52;;;;;;;4.83;3.40;;;10.20;99.90;;;;;;4913833;29;20505;-77
2021/10/27 06:46:58;;;;;;;4.53;3.50;;;10.40;99.90;;;;;;4918405;29;20482;-78
2021/10/27 06:49:27;;;;;;;4.03;3.27;;;10.50;99.90;;;;;;4913200;29;20464;-79
2021/10/27 06:51:55;;;;;;;4.20;3.10;;;10.50;99.90;;;;;;4913402;29;21088;-79
2021/10/27 06:54:24;;;;;;;5.97;3.93;;;10.50;99.90;;;;;;4913124;29;20530;-78
2021/10/27 06:56:53;;;;;;;5.03;3.80;;;10.50;99.90;;;;;;4913940;29;20500;-78
2021/10/27 06:59:30;;;;;;;4.37;3.97;;;10.60;99.90;;;;;;4913415;29;20469;-78
2021/10/27 07:02:34;;;;;;;3.30;3.00;;;10.60;99.90;;;;;;4905392;29;20465;-78
2021/10/27 07:05:27;;;;;;;6.23;4.50;;;10.60;99.90;;;;;;4913240;29;20465;-78
2021/10/27 07:16:11;;;;;;;4.33;3.87;;;10.40;99.90;;;;;;4905955;29;20473;-78
2021/10/27 07:18:39;;;;;;;7.17;4.63;;;10.10;99.90;;;;;;4913614;29;20524;-78
2021/10/27 07:21:08;;;;;;;7.60;4.30;;;10.10;99.90;;;;;;4912558;29;20461;-78
2021/10/27 07:23:39;;;;;;;5.50;4.13;;;10.20;99.90;;;;;;4909686;29;20485;-78
2021/10/27 07:26:08;;;;;;;9.40;5.50;;;10.30;99.90;;;;;;4913218;29;20471;-78
2021/10/27 07:28:37;;;;;;;7.37;4.80;;;10.50;99.90;;;;;;4912823;29;20532;-79
2021/10/27 07:31:08;;;;;;;10.40;5.13;;;10.50;99.90;;;;;;4899029;29;20476;-78
2021/10/27 07:33:37;;;;;;;7.00;5.20;;;10.50;1.00;;;;;;4913202;29;20996;-79
2021/10/27 07:36:09;;;;;;;7.40;4.90;;;10.60;1.00;;;;;;4912743;29;20489;-79
2021/10/27 07:41:24;;;;;;;5.10;4.60;;;10.90;99.90;;;;;;4897857;29;20530;-78
2021/10/27 07:43:54;;;;;;;22.30;12.00;;;11.10;99.90;;;;;;4904997;29;21274;-79
2021/10/27 07:46:22;;;;;;;6.70;5.00;;;11.30;99.90;;;;;;4909310;29;20526;-79
2021/10/27 07:48:50;;;;;;;7.37;4.63;;;11.40;99.90;;;;;;4919854;29;21079;-78
2021/10/27 07:51:19;;;;;;;12.13;5.37;;;11.40;99.90;;;;;;4911373;29;20525;-78
2021/10/27 07:53:50;;;;;;;4.77;4.10;;;11.50;99.90;;;;;;4911865;29;20481;-79
2021/10/27 07:56:18;;;;;;;5.80;3.87;;;11.70;99.90;;;;;;4912802;29;20453;-80
2021/10/27 07:58:49;;;;;;;7.03;4.20;;;11.70;99.90;;;;;;4900391;29;20490;-78
2021/10/27 08:01:18;;;;;;;6.27;4.87;;;11.60;99.90;;;;;;4910383;29;20472;-78
2021/10/27 08:03:47;;;;;;;5.63;5.13;;;11.60;99.90;;;;;;4913397;29;20985;-78
2021/10/27 08:06:15;;;;;;;4.90;3.53;;;11.80;1.00;;;;;;4914154;29;21043;-78
2021/10/27 08:08:43;;;;;;;6.70;4.27;;;12.00;99.90;;;;;;4914448;29;20475;-78
2021/10/27 08:11:12;;;;;;;4.40;4.00;;;12.20;1.00;;;;;;4911855;29;20466;-79
2021/10/27 08:13:40;;;;;;;4.10;3.70;;;12.20;1.00;;;;;;4908810;29;20545;-78
2021/10/27 08:16:09;;;;;;;4.87;3.90;;;12.40;99.90;;;;;;4908420;29;20549;-79
2021/10/27 08:18:39;;;;;;;6.70;4.50;;;12.50;99.90;;;;;;4911482;29;20474;-79
2021/10/27 08:21:08;;;;;;;4.33;3.70;;;12.60;99.90;;;;;;4907310;29;20474;-78
2021/10/27 08:23:40;;;;;;;9.20;4.70;;;12.80;99.90;;;;;;4911303;29;20617;-78
2021/10/27 08:26:10;;;;;;;4.83;4.30;;;13.00;99.90;;;;;;4909057;29;20473;-79
2021/10/27 08:28:40;;;;;;;7.30;4.40;;;13.10;99.90;;;;;;4909725;29;20484;-78
2021/10/27 08:31:14;;;;;;;6.47;5.73;;;13.30;99.90;;;;;;4903618;29;20544;-78
2021/10/27 08:33:59;;;;;;;7.20;5.37;;;13.40;99.90;;;;;;4911565;29;20495;-79
2021/10/27 08:36:28;;;;;;;13.17;4.10;;;13.60;99.90;;;;;;4896579;29;20484;-79
2021/10/27 08:38:56;;;;;;;6.37;3.43;;;13.90;99.90;;;;;;4907877;29;20528;-79
2021/10/27 08:41:45;;;;;;;5.20;3.43;;;14.10;99.90;;;;;;4909416;29;20465;-79
2021/10/27 08:44:13;;;;;;;6.83;2.97;;;14.30;99.90;;;;;;4913616;29;20454;-78
2021/10/27 08:46:42;;;;;;;4.10;3.70;;;14.40;99.90;;;;;;4910995;29;20509;-79
2021/10/27 08:49:15;;;;;;;4.80;3.80;;;14.40;99.90;;;;;;4908909;29;20520;-79
2021/10/27 08:51:44;;;;;;;4.37;3.20;;;14.60;99.90;;;;;;4908176;29;20471;-79
2021/10/27 08:54:13;;;;;;;4.47;3.60;;;14.60;99.90;;;;;;4906530;29;20486;-79
2021/10/27 08:56:43;;;;;;;4.23;3.47;;;14.60;99.90;;;;;;4906704;29;20465;-79
2021/10/27 08:59:17;;;;;;;5.83;4.60;;;14.70;99.90;;;;;;4905150;29;20474;-79
2021/10/27 09:02:08;;;;;;;4.13;3.27;;;14.70;99.90;;;;;;4910569;29;20457;-79
2021/10/27 09:05:01;;;;;;;4.77;3.30;;;14.80;99.90;;;;;;4906913;29;20458;-78
2021/10/27 09:07:44;;;;;;;7.67;3.20;;;15.00;99.90;;;;;;4908838;29;20535;-78
2021/10/27 09:14:23;;;;;;;4.20;3.03;;;15.10;99.90;;;;;;4911692;29;20478;-78
2021/10/27 09:16:43;;;;;;;3.30;2.80;;;15.50;99.90;;;;;;4903253;29;20461;-79
2021/10/27 09:34:01;;;;;;;4.13;3.33;;;16.60;99.90;;;;;;4915578;29;20528;-79
2021/10/27 09:36:45;;;;;;;5.13;2.93;;;16.80;99.90;;;;;;4909851;29;20465;-79
2021/10/27 09:42:20;;;;;;;4.80;3.30;;;17.10;99.90;;;;;;4906139;29;20477;-77
2021/10/27 09:45:08;;;;;;;7.57;4.10;;;17.20;99.90;;;;;;4913099;29;20457;-78
2021/10/27 10:04:25;;;;;;;3.53;2.40;;;17.60;99.90;;;;;;4906079;29;20465;-78
2021/10/27 10:06:59;;;;;;;2.63;1.77;;;17.60;99.90;;;;;;4897782;29;20496;-79
2021/10/27 10:09:29;;;;;;;2.63;1.70;;;17.60;99.90;;;;;;4910381;29;20469;-78
2021/10/27 10:12:00;;;;;;;1.73;1.50;;;17.60;99.90;;;;;;4912051;29;20470;-79
2021/10/27 10:14:29;;;;;;;2.47;1.80;;;17.80;99.90;;;;;;4910889;29;20494;-76
2021/10/27 10:17:02;;;;;;;4.37;1.90;;;18.00;99.90;;;;;;4912916;29;20643;-75
2021/10/27 10:19:35;;;;;;;2.30;1.60;;;18.20;99.90;;;;;;4913700;29;20462;-77
2021/10/27 10:22:04;;;;;;;2.77;1.90;;;18.20;99.90;;;;;;4908275;29;20836;-75
2021/10/27 10:24:37;;;;;;;4.27;2.60;;;18.20;99.90;;;;;;4910749;29;21030;-77
2021/10/27 10:27:12;;;;;;;3.17;2.87;;;18.20;99.90;;;;;;4908962;29;21009;-77
2021/10/27 10:29:57;;;;;;;2.43;2.17;;;18.10;99.90;;;;;;4911257;29;20882;-76
2021/10/27 10:32:48;;;;;;;3.83;2.40;;;18.10;99.90;;;;;;4913187;29;20479;-74
2021/10/27 10:35:20;;;;;;;3.27;2.40;;;18.10;99.90;;;;;;4908095;29;20493;-76
2021/10/27 10:38:06;;;;;;;3.43;3.10;;;18.40;99.90;;;;;;4904966;29;20496;-77
2021/10/27 10:44:03;;;;;;;3.73;2.67;;;18.70;99.90;;;;;;4905815;29;20477;-76
2021/10/27 10:59:05;;;;;;;2.60;1.90;;;19.10;99.90;;;;;;4903602;29;20482;-77
2021/10/27 11:01:53;;;;;;;2.08;1.52;;;19.50;99.90;;;;;;4905896;29;20869;-76
2021/10/27 11:22:37;;;;;;;1.33;1.23;;;18.80;99.90;;;;;;4924872;29;20462;-78
2021/10/27 11:25:14;;;;;;;1.20;1.10;;;18.80;99.90;;;;;;4900624;29;20469;-78
2021/10/27 11:42:21;;;;;;;1.70;1.20;;;18.40;99.90;;;;;;4896620;29;20571;-77
2021/10/27 11:44:52;;;;;;;1.50;1.23;;;18.50;99.90;;;;;;4895615;29;20465;-78
2021/10/27 11:47:34;;;;;;;2.00;1.20;;;18.50;99.90;;;;;;4908936;29;20477;-77
2021/10/27 11:50:02;;;;;;;2.70;1.20;;;18.60;99.90;;;;;;4896534;29;20510;-78
2021/10/27 11:52:33;;;;;;;1.00;1.00;;;18.60;99.90;;;;;;4918761;29;20478;-78
2021/10/27 11:55:03;;;;;;;2.23;1.47;;;18.70;99.90;;;;;;4903628;29;20485;-78
2021/10/27 11:57:33;;;;;;;1.47;1.10;;;18.80;99.90;;;;;;4910322;29;21034;-78
2021/10/27 12:00:05;;;;;;;1.10;1.10;;;18.80;99.90;;;;;;4909259;29;20523;-78
2021/10/27 12:02:48;;;;;;;1.37;1.23;;;18.80;99.90;;;;;;4896757;29;20466;-78
2021/10/27 12:05:25;;;;;;;0.90;0.90;;;18.90;99.90;;;;;;4911064;29;20464;-79
2021/10/27 12:11:12;;;;;;;1.90;1.20;;;19.00;99.90;;;;;;4910521;29;20471;-78
2021/10/27 12:13:49;;;;;;;1.90;1.00;;;18.90;99.90;;;;;;4909016;29;20493;-79
2021/10/27 12:19:15;;;;;;;1.60;1.00;;;18.90;99.90;;;;;;4896197;29;20470;-79
2021/10/27 12:21:50;;;;;;;1.33;1.03;;;18.90;99.90;;;;;;4911818;29;20476;-78
2021/10/27 12:24:22;;;;;;;1.50;0.90;;;18.90;99.90;;;;;;4916344;29;20460;-78
2021/10/27 12:26:59;;;;;;;1.30;0.90;;;18.90;99.90;;;;;;4919641;29;20481;-78
2021/10/27 12:29:28;;;;;;;2.40;1.20;;;18.90;99.90;;;;;;4910558;29;21132;-79
2021/10/27 12:32:05;;;;;;;0.87;0.87;;;18.90;99.90;;;;;;4914845;29;20461;-79
2021/10/27 12:34:34;;;;;;;1.57;0.90;;;18.80;99.90;;;;;;4915038;29;20481;-79
2021/10/27 12:37:21;;;;;;;1.90;0.73;;;18.90;99.90;;;;;;4912838;29;20491;-78
2021/10/27 12:39:50;;;;;;;1.10;1.00;;;19.00;99.90;;;;;;4920794;29;20453;-78
2021/10/27 12:42:19;;;;;;;0.67;0.67;;;19.00;99.90;;;;;;4900031;29;20469;-78
2021/10/27 12:44:50;;;;;;;1.00;0.70;;;19.00;99.90;;;;;;4913506;29;20458;-79
2021/10/27 12:47:23;;;;;;;1.10;0.70;;;19.10;99.90;;;;;;4912136;29;20485;-78
2021/10/27 12:50:06;;;;;;;0.80;0.63;;;19.00;99.90;;;;;;4912066;29;20466;-79
2021/10/27 12:52:39;;;;;;;0.70;0.70;;;19.00;99.90;;;;;;4920300;29;20796;-78
2021/10/27 12:55:30;;;;;;;1.23;0.70;;;19.00;99.90;;;;;;4910911;29;20576;-78
2021/10/27 12:58:03;;;;;;;1.20;0.90;;;19.10;99.90;;;;;;4896934;29;20517;-79
2021/10/27 13:00:48;;;;;;;1.47;1.30;;;19.20;99.90;;;;;;4900026;29;21038;-78
2021/10/27 13:06:21;;;;;;;2.20;0.90;;;19.10;99.90;;;;;;4914287;29;21025;-79
2021/10/27 13:20:18;;;;;;;1.07;0.97;;;18.80;99.90;;;;;;4928745;29;21048;-79
2021/10/27 13:31:09;;;;;;;1.30;0.80;;;18.90;99.90;;;;;;4914205;29;20460;-78
2021/10/27 13:33:37;;;;;;;0.80;0.80;;;19.00;99.90;;;;;;4912015;29;20448;-79
2021/10/27 13:36:06;;;;;;;1.00;0.80;;;19.00;99.90;;;;;;4913629;29;20485;-78
2021/10/27 13:38:36;;;;;;;0.93;0.80;;;18.90;99.90;;;;;;4902359;29;20489;-79
2021/10/27 13:41:07;;;;;;;0.80;0.80;;;19.00;99.90;;;;;;4922659;29;21152;-80
2021/10/27 13:43:41;;;;;;;1.00;0.90;;;19.10;99.90;;;;;;4914810;29;20450;-79
2021/10/27 13:49:27;;;;;;;1.07;0.80;;;19.10;99.90;;;;;;4904297;29;20457;-79
2021/10/27 14:06:09;;;;;;;0.80;0.80;;;19.00;99.90;;;;;;4911176;29;20461;-79
2021/10/27 14:11:31;;;;;;;1.40;0.90;;;19.20;99.90;;;;;;4912455;29;20214;-78
2021/10/27 14:14:09;;;;;;;0.83;0.83;;;19.30;99.90;;;;;;4912863;29;20602;-79
2021/10/27 14:16:59;;;;;;;3.07;1.00;;;19.30;99.90;;;;;;4914022;29;20473;-78
2021/10/27 14:48:07;;;;;;;1.03;0.90;;;19.40;99.90;;;;;;4913531;29;20486;-78
2021/10/27 14:50:53;;;;;;;6.53;3.27;;;19.40;99.90;;;;;;4905426;29;20465;-79
2021/10/27 15:21:43;;;;;;;2.07;1.10;;;18.90;99.90;;;;;;4910896;29;20875;-78
2021/10/27 15:24:34;;;;;;;1.33;1.23;;;18.90;99.90;;;;;;4906650;29;20475;-78
2021/10/27 15:30:21;;;;;;;1.20;1.10;;;18.90;99.90;;;;;;4904829;29;20481;-79
2021/10/27 15:33:15;;;;;;;2.30;1.30;;;18.70;99.90;;;;;;4910051;29;21015;-77
2021/10/27 15:35:57;;;;;;;1.83;1.17;;;18.70;99.90;;;;;;4907458;29;20478;-78
2021/10/27 15:41:23;;;;;;;2.60;1.43;;;18.70;99.90;;;;;;4905205;29;20520;-78
2021/10/27 15:44:00;;;;;;;1.70;1.20;;;18.60;99.90;;;;;;4896620;29;20465;-77
2021/10/27 15:52:03;;;;;;;4.43;1.70;;;18.60;99.90;;;;;;4906638;29;20465;-78
2021/10/27 15:54:32;;;;;;;1.77;1.20;;;18.50;99.90;;;;;;4907590;29;20458;-77
2021/10/27 15:57:01;;;;;;;1.83;1.50;;;18.50;99.90;;;;;;4908142;29;20505;-77
2021/10/27 15:59:30;;;;;;;3.00;1.70;;;18.40;99.90;;;;;;4909074;29;20457;-77
2021/10/27 16:01:58;;;;;;;2.00;1.73;;;18.30;99.90;;;;;;4906020;29;20963;-78
2021/10/27 16:04:26;;;;;;;2.03;1.80;;;18.30;99.90;;;;;;4904634;29;20547;-79
2021/10/27 16:06:55;;;;;;;1.70;1.60;;;18.20;99.90;;;;;;4900940;29;20458;-76
2021/10/27 16:09:28;;;;;;;1.97;1.77;;;18.10;99.90;;;;;;4908918;29;20461;-77
2021/10/27 16:12:11;;;;;;;4.50;1.50;;;18.10;99.90;;;;;;4907277;29;20556;-79
2021/10/27 16:14:40;;;;;;;2.83;1.40;;;18.10;99.90;;;;;;4901420;29;20473;-78
2021/10/27 16:17:08;;;;;;;2.53;1.40;;;18.00;99.90;;;;;;4902848;29;20503;-78
2021/10/27 16:19:36;;;;;;;2.87;1.47;;;17.90;99.90;;;;;;4897971;29;20466;-78
2021/10/27 16:22:09;;;;;;;1.90;1.80;;;17.80;99.90;;;;;;4902773;29;20468;-78
2021/10/27 16:24:39;;;;;;;2.43;1.40;;;17.70;99.90;;;;;;4910652;29;20530;-78
2021/10/27 16:27:10;;;;;;;1.53;1.43;;;17.70;99.90;;;;;;4912175;29;20477;-78
2021/10/27 16:29:39;;;;;;;1.87;1.77;;;17.60;99.90;;;;;;4900198;29;20507;-78
2021/10/27 16:32:09;;;;;;;4.63;3.03;;;17.60;99.90;;;;;;4911949;29;20490;-78
2021/10/27 16:34:39;;;;;;;3.70;2.67;;;17.50;99.90;;;;;;4912285;29;20463;-77
2021/10/27 16:37:25;;;;;;;3.63;2.80;;;17.50;99.90;;;;;;4900881;29;20543;-78
2021/10/27 16:39:54;;;;;;;2.90;2.20;;;17.50;99.90;;;;;;4911975;29;20463;-78
2021/10/27 16:42:25;;;;;;;4.00;3.00;;;17.40;99.90;;;;;;4913597;29;20491;-77
2021/10/27 16:44:53;;;;;;;5.63;2.10;;;17.30;99.90;;;;;;4915004;29;21067;-77
2021/10/27 16:47:22;;;;;;;2.20;1.93;;;17.30;99.90;;;;;;4904360;29;20508;-78
2021/10/27 16:49:50;;;;;;;4.67;2.73;;;17.30;99.90;;;;;;4911478;29;21249;-78
2021/10/27 16:52:18;;;;;;;2.27;2.07;;;17.20;99.90;;;;;;4912171;29;20457;-80